sensor_id;sensor_type;location;lat;lon;timestamp;pressure;altitude;pressure_sealevel;temperature;humidity
22283;BME280;11310;51.528;21.204;2023-03-23T00:00:21;99402.25;;;8.48;100.00
22283;BME280;11310;51.528;21.204;2023-03-23T00:02:49;99397.94;;;8.47;100.00
22283;BME280;11310;51.528;21.204;2023-03-23T00:05:18;99410.97;;;8.48;100.00
22283;BME280;11310;51.528;21.204;2023-03-23T00:07:45;99402.41;;;8.45;100.00
22283;BME280;11310;51.528;21.204;2023-03-23T00:10:17;99398.13;;;8.44;100.00
22283;BME280;11310;51.528;21.204;2023-03-23T00:12:45;99407.72;;;8.43;100.00
22283;BME280;11310;51.528;21.204;2023-03-23T00:15:15;99402.63;;;8.40;100.00
22283;BME280;11310;51.528;21.204;2023-03-23T00:17:42;99398.56;;;8.35;100.00
22283;BME280;11310;51.528;21.204;2023-03-23T00:20:10;99399.69;;;8.29;100.00
22283;BME280;11310;51.528;21.204;2023-03-23T00:22:40;99395.72;;;8.21;100.00
22283;BME280;11310;51.528;21.204;2023-03-23T00:25:08;99399.50;;;8.14;100.00
22283;BME280;11310;51.528;21.204;2023-03-23T00:27:36;99396.13;;;8.12;100.00
22283;BME280;11310;51.528;21.204;2023-03-23T00:30:05;99397.03;;;8.11;100.00
22283;BME280;11310;51.528;21.204;2023-03-23T00:32:33;99386.66;;;8.09;100.00
22283;BME280;11310;51.528;21.204;2023-03-23T00:35:01;99392.03;;;8.06;100.00
22283;BME280;11310;51.528;21.204;2023-03-23T00:37:29;99385.13;;;8.05;100.00
22283;BME280;11310;51.528;21.204;2023-03-23T00:39:58;99384.38;;;8.02;100.00
22283;BME280;11310;51.528;21.204;2023-03-23T00:42:26;99386.16;;;8.01;100.00
22283;BME280;11310;51.528;21.204;2023-03-23T00:44:54;99381.00;;;8.00;100.00
22283;BME280;11310;51.528;21.204;2023-03-23T00:47:26;99375.78;;;8.00;100.00
22283;BME280;11310;51.528;21.204;2023-03-23T00:49:54;99373.25;;;7.98;100.00
22283;BME280;11310;51.528;21.204;2023-03-23T00:52:22;99366.47;;;7.94;100.00
22283;BME280;11310;51.528;21.204;2023-03-23T00:54:51;99374.47;;;7.91;100.00
22283;BME280;11310;51.528;21.204;2023-03-23T00:57:19;99369.31;;;7.90;100.00
22283;BME280;11310;51.528;21.204;2023-03-23T00:59:50;99374.59;;;7.88;100.00
22283;BME280;11310;51.528;21.204;2023-03-23T01:02:17;99372.81;;;7.89;100.00
22283;BME280;11310;51.528;21.204;2023-03-23T01:04:46;99359.91;;;7.86;100.00
22283;BME280;11310;51.528;21.204;2023-03-23T01:07:18;99353.75;;;7.87;100.00
22283;BME280;11310;51.528;21.204;2023-03-23T01:09:45;99352.06;;;7.86;100.00
22283;BME280;11310;51.528;21.204;2023-03-23T01:12:14;99356.50;;;7.84;100.00
22283;BME280;11310;51.528;21.204;2023-03-23T01:14:43;99356.50;;;7.84;100.00
22283;BME280;11310;51.528;21.204;2023-03-23T01:17:11;99346.97;;;7.83;100.00
22283;BME280;11310;51.528;21.204;2023-03-23T01:19:38;99352.25;;;7.81;100.00
22283;BME280;11310;51.528;21.204;2023-03-23T01:22:06;99348.91;;;7.79;100.00
22283;BME280;11310;51.528;21.204;2023-03-23T01:24:34;99345.34;;;7.80;100.00
22283;BME280;11310;51.528;21.204;2023-03-23T01:27:01;99348.84;;;7.81;100.00
22283;BME280;11310;51.528;21.204;2023-03-23T01:29:32;99352.38;;;7.80;100.00
22283;BME280;11310;51.528;21.204;2023-03-23T01:32:02;99348.97;;;7.78;100.00
22283;BME280;11310;51.528;21.204;2023-03-23T01:34:30;99348.25;;;7.74;100.00
22283;BME280;11310;51.528;21.204;2023-03-23T01:36:58;99348.19;;;7.76;100.00
22283;BME280;11310;51.528;21.204;2023-03-23T01:39:26;99350.81;;;7.76;100.00
22283;BME280;11310;51.528;21.204;2023-03-23T01:41:53;99347.47;;;7.72;100.00
22283;BME280;11310;51.528;21.204;2023-03-23T01:47:29;99346.06;;;7.65;100.00
22283;BME280;11310;51.528;21.204;2023-03-23T01:49:56;99352.22;;;7.64;100.00
22283;BME280;11310;51.528;21.204;2023-03-23T01:52:26;99348.88;;;7.61;100.00
22283;BME280;11310;51.528;21.204;2023-03-23T01:55:02;99354.25;;;7.58;100.00
22283;BME280;11310;51.528;21.204;2023-03-23T01:57:31;99349.16;;;7.55;100.00
22283;BME280;11310;51.528;21.204;2023-03-23T02:00:05;99343.22;;;7.51;100.00
22283;BME280;11310;51.528;21.204;2023-03-23T02:02:43;99341.59;;;7.49;100.00
22283;BME280;11310;51.528;21.204;2023-03-23T02:05:14;99339.81;;;7.49;100.00
22283;BME280;11310;51.528;21.204;2023-03-23T02:07:45;99335.59;;;7.47;100.00
22283;BME280;11310;51.528;21.204;2023-03-23T02:10:15;99338.06;;;7.50;100.00
22283;BME280;11310;51.528;21.204;2023-03-23T02:12:43;99336.38;;;7.49;100.00
22283;BME280;11310;51.528;21.204;2023-03-23T02:15:12;99335.53;;;7.48;100.00
22283;BME280;11310;51.528;21.204;2023-03-23T02:17:48;99333.13;;;7.44;100.00
22283;BME280;11310;51.528;21.204;2023-03-23T02:20:33;99335.94;;;7.39;100.00
22283;BME280;11310;51.528;21.204;2023-03-23T02:23:29;99340.31;;;7.39;100.00
22283;BME280;11310;51.528;21.204;2023-03-23T02:26:05;99336.97;;;7.35;100.00
22283;BME280;11310;51.528;21.204;2023-03-23T02:28:51;99335.22;;;7.36;100.00
22283;BME280;11310;51.528;21.204;2023-03-23T02:31:35;99332.63;;;7.36;100.00
22283;BME280;11310;51.528;21.204;2023-03-23T02:34:15;99330.00;;;7.36;100.00
22283;BME280;11310;51.528;21.204;2023-03-23T02:36:47;99332.63;;;7.36;100.00
22283;BME280;11310;51.528;21.204;2023-03-23T02:39:21;99340.44;;;7.36;100.00
22283;BME280;11310;51.528;21.204;2023-03-23T02:41:54;99330.78;;;7.38;100.00
22283;BME280;11310;51.528;21.204;2023-03-23T02:44:23;99332.50;;;7.39;100.00
22283;BME280;11310;51.528;21.204;2023-03-23T02:46:54;99336.91;;;7.37;100.00
22283;BME280;11310;51.528;21.204;2023-03-23T02:49:25;99330.59;;;7.42;100.00
22283;BME280;11310;51.528;21.204;2023-03-23T02:51:56;99328.75;;;7.44;100.00
22283;BME280;11310;51.528;21.204;2023-03-23T02:54:26;99327.56;;;7.51;100.00
22283;BME280;11310;51.528;21.204;2023-03-23T02:56:56;99326.66;;;7.52;100.00
22283;BME280;11310;51.528;21.204;2023-03-23T02:59:29;99332.78;;;7.51;100.00
22283;BME280;11310;51.528;21.204;2023-03-23T03:02:03;99330.13;;;7.53;100.00
22283;BME280;11310;51.528;21.204;2023-03-23T03:04:34;99330.13;;;7.53;100.00
22283;BME280;11310;51.528;21.204;2023-03-23T03:10:11;99329.19;;;7.54;100.00
22283;BME280;11310;51.528;21.204;2023-03-23T03:12:46;99333.50;;;7.55;100.00
22283;BME280;11310;51.528;21.204;2023-03-23T03:15:23;99330.88;;;7.55;100.00
22283;BME280;11310;51.528;21.204;2023-03-23T03:17:59;99331.75;;;7.55;100.00
22283;BME280;11310;51.528;21.204;2023-03-23T03:20:31;99327.34;;;7.56;100.00
22283;BME280;11310;51.528;21.204;2023-03-23T03:23:01;99330.75;;;7.58;100.00
22283;BME280;11310;51.528;21.204;2023-03-23T03:25:31;99329.91;;;7.57;100.00
22283;BME280;11310;51.528;21.204;2023-03-23T03:27:59;99327.97;;;7.61;100.00
22283;BME280;11310;51.528;21.204;2023-03-23T03:30:38;99327.09;;;7.62;100.00
22283;BME280;11310;51.528;21.204;2023-03-23T03:33:06;99321.72;;;7.65;100.00
22283;BME280;11310;51.528;21.204;2023-03-23T03:35:36;99320.94;;;7.63;100.00
22283;BME280;11310;51.528;21.204;2023-03-23T03:38:06;99321.88;;;7.62;100.00
22283;BME280;11310;51.528;21.204;2023-03-23T03:40:34;99323.69;;;7.60;100.00
22283;BME280;11310;51.528;21.204;2023-03-23T03:43:02;99317.53;;;7.61;100.00
22283;BME280;11310;51.528;21.204;2023-03-23T03:45:30;99314.88;;;7.62;100.00
22283;BME280;11310;51.528;21.204;2023-03-23T03:47:57;99309.53;;;7.65;100.00
22283;BME280;11310;51.528;21.204;2023-03-23T03:50:25;99316.50;;;7.65;100.00
22283;BME280;11310;51.528;21.204;2023-03-23T03:52:54;99320.72;;;7.67;100.00
22283;BME280;11310;51.528;21.204;2023-03-23T03:55:22;99318.97;;;7.68;100.00
22283;BME280;11310;51.528;21.204;2023-03-23T03:57:52;99325.13;;;7.67;100.00
22283;BME280;11310;51.528;21.204;2023-03-23T04:00:59;99319.03;;;7.66;100.00
22283;BME280;11310;51.528;21.204;2023-03-23T04:03:34;99317.22;;;7.68;100.00
22283;BME280;11310;51.528;21.204;2023-03-23T04:06:06;99320.66;;;7.69;100.00
22283;BME280;11310;51.528;21.204;2023-03-23T04:08:36;99324.97;;;7.70;100.00
22283;BME280;11310;51.528;21.204;2023-03-23T04:11:05;99324.13;;;7.69;100.00
22283;BME280;11310;51.528;21.204;2023-03-23T04:13:33;99323.28;;;7.69;100.00
22283;BME280;11310;51.528;21.204;2023-03-23T04:16:21;99324.19;;;7.68;100.00
22283;BME280;11310;51.528;21.204;2023-03-23T04:18:49;99318.06;;;7.69;100.00
22283;BME280;11310;51.528;21.204;2023-03-23T04:21:18;99324.13;;;7.69;100.00
22283;BME280;11310;51.528;21.204;2023-03-23T04:23:49;99322.44;;;7.68;100.00
22283;BME280;11310;51.528;21.204;2023-03-23T04:26:17;99316.50;;;7.65;100.00
22283;BME280;11310;51.528;21.204;2023-03-23T04:28:48;99320.09;;;7.62;100.00
22283;BME280;11310;51.528;21.204;2023-03-23T04:31:31;99316.66;;;7.62;100.00
22283;BME280;11310;51.528;21.204;2023-03-23T04:34:16;99311.44;;;7.62;100.00
22283;BME280;11310;51.528;21.204;2023-03-23T04:36:48;99323.56;;;7.63;100.00
22283;BME280;11310;51.528;21.204;2023-03-23T04:39:22;99305.41;;;7.60;100.00
22283;BME280;11310;51.528;21.204;2023-03-23T04:41:52;99315.84;;;7.60;100.00
22283;BME280;11310;51.528;21.204;2023-03-23T04:44:35;99314.25;;;7.57;100.00
22283;BME280;11310;51.528;21.204;2023-03-23T04:47:11;99315.09;;;7.58;100.00
22283;BME280;11310;51.528;21.204;2023-03-23T04:49:47;99308.88;;;7.60;100.00
22283;BME280;11310;51.528;21.204;2023-03-23T04:52:25;99312.47;;;7.58;100.00
22283;BME280;11310;51.528;21.204;2023-03-23T04:55:01;99306.34;;;7.59;100.00
22283;BME280;11310;51.528;21.204;2023-03-23T04:57:29;99308.72;;;7.63;100.00
22283;BME280;11310;51.528;21.204;2023-03-23T05:00:17;99306.84;;;7.67;100.00
22283;BME280;11310;51.528;21.204;2023-03-23T05:02:53;99305.69;;;7.72;100.00
22283;BME280;11310;51.528;21.204;2023-03-23T05:05:25;99310.72;;;7.77;100.00
22283;BME280;11310;51.528;21.204;2023-03-23T05:07:56;99306.06;;;7.83;100.00
22283;BME280;11310;51.528;21.204;2023-03-23T05:10:28;99307.53;;;7.89;100.00
22283;BME280;11310;51.528;21.204;2023-03-23T05:13:03;99301.25;;;7.93;100.00
22283;BME280;11310;51.528;21.204;2023-03-23T05:15:31;99302.78;;;7.97;100.00
22283;BME280;11310;51.528;21.204;2023-03-23T05:18:00;99302.66;;;8.00;100.00
22283;BME280;11310;51.528;21.204;2023-03-23T05:20:30;99306.66;;;8.07;100.00
22283;BME280;11310;51.528;21.204;2023-03-23T05:23:06;99301.94;;;8.15;100.00
22283;BME280;11310;51.528;21.204;2023-03-23T05:25:36;99300.59;;;8.25;100.00
22283;BME280;11310;51.528;21.204;2023-03-23T05:28:19;99300.25;;;8.32;100.00
22283;BME280;11310;51.528;21.204;2023-03-23T05:30:58;99300.78;;;8.39;100.00
22283;BME280;11310;51.528;21.204;2023-03-23T05:33:31;99310.03;;;8.46;100.00
22283;BME280;11310;51.528;21.204;2023-03-23T05:36:19;99305.28;;;8.54;100.00
22283;BME280;11310;51.528;21.204;2023-03-23T05:39:09;99288.19;;;8.64;100.00
22283;BME280;11310;51.528;21.204;2023-03-23T05:41:59;99282.44;;;8.74;100.00
22283;BME280;11310;51.528;21.204;2023-03-23T05:44:38;99298.41;;;8.85;100.00
22283;BME280;11310;51.528;21.204;2023-03-23T05:47:06;99305.88;;;8.93;100.00
22283;BME280;11310;51.528;21.204;2023-03-23T05:49:37;99301.78;;;9.04;100.00
22283;BME280;11310;51.528;21.204;2023-03-23T05:52:09;99306.47;;;9.15;100.00
22283;BME280;11310;51.528;21.204;2023-03-23T05:54:38;99303.91;;;9.30;100.00
22283;BME280;11310;51.528;21.204;2023-03-23T05:57:09;99299.88;;;9.40;100.00
22283;BME280;11310;51.528;21.204;2023-03-23T05:59:43;99303.47;;;9.55;100.00
22283;BME280;11310;51.528;21.204;2023-03-23T06:02:19;99308.81;;;9.69;100.00
22283;BME280;11310;51.528;21.204;2023-03-23T06:04:47;99297.66;;;9.81;100.00
22283;BME280;11310;51.528;21.204;2023-03-23T06:07:24;99290.81;;;9.94;100.00
22283;BME280;11310;51.528;21.204;2023-03-23T06:10:00;99296.94;;;10.10;100.00
22283;BME280;11310;51.528;21.204;2023-03-23T06:12:39;99295.25;;;10.24;100.00
22283;BME280;11310;51.528;21.204;2023-03-23T06:15:08;99296.41;;;10.34;100.00
22283;BME280;11310;51.528;21.204;2023-03-23T06:18:00;99299.91;;;10.49;100.00
22283;BME280;11310;51.528;21.204;2023-03-23T06:20:44;99293.91;;;10.62;100.00
22283;BME280;11310;51.528;21.204;2023-03-23T06:23:22;99294.78;;;10.77;100.00
22283;BME280;11310;51.528;21.204;2023-03-23T06:25:53;99292.53;;;10.85;100.00
22283;BME280;11310;51.528;21.204;2023-03-23T06:28:22;99293.03;;;10.91;100.00
22283;BME280;11310;51.528;21.204;2023-03-23T06:30:50;99294.47;;;10.97;100.00
22283;BME280;11310;51.528;21.204;2023-03-23T06:33:19;99293.16;;;11.04;100.00
22283;BME280;11310;51.528;21.204;2023-03-23T06:36:05;99299.34;;;11.17;100.00
22283;BME280;11310;51.528;21.204;2023-03-23T06:38:49;99310.91;;;11.28;100.00
22283;BME280;11310;51.528;21.204;2023-03-23T06:41:22;99315.34;;;11.42;100.00
22283;BME280;11310;51.528;21.204;2023-03-23T06:43:52;99319.25;;;11.49;100.00
22283;BME280;11310;51.528;21.204;2023-03-23T06:46:26;99326.53;;;11.59;100.00
22283;BME280;11310;51.528;21.204;2023-03-23T06:49:14;99328.28;;;11.73;100.00
22283;BME280;11310;51.528;21.204;2023-03-23T06:51:53;99321.16;;;11.89;100.00
22283;BME280;11310;51.528;21.204;2023-03-23T06:54:24;99324.63;;;12.04;100.00
22283;BME280;11310;51.528;21.204;2023-03-23T06:56:52;99318.47;;;12.17;100.00
22283;BME280;11310;51.528;21.204;2023-03-23T06:59:24;99330.63;;;12.32;100.00
22283;BME280;11310;51.528;21.204;2023-03-23T07:01:52;99320.28;;;12.43;100.00
22283;BME280;11310;51.528;21.204;2023-03-23T07:04:20;99332.84;;;12.52;100.00
22283;BME280;11310;51.528;21.204;2023-03-23T07:06:58;99318.56;;;12.56;100.00
22283;BME280;11310;51.528;21.204;2023-03-23T07:09:27;99312.16;;;12.60;100.00
22283;BME280;11310;51.528;21.204;2023-03-23T07:11:54;99306.66;;;12.63;100.00
22283;BME280;11310;51.528;21.204;2023-03-23T07:14:31;99299.72;;;12.62;100.00
22283;BME280;11310;51.528;21.204;2023-03-23T07:16:59;99311.66;;;12.68;100.00
22283;BME280;11310;51.528;21.204;2023-03-23T07:19:29;99308.69;;;12.72;100.00
22283;BME280;11310;51.528;21.204;2023-03-23T07:21:57;99318.00;;;12.78;100.00
22283;BME280;11310;51.528;21.204;2023-03-23T07:24:25;99319.25;;;12.85;99.48
22283;BME280;11310;51.528;21.204;2023-03-23T07:27:05;99318.00;;;12.90;98.76
22283;BME280;11310;51.528;21.204;2023-03-23T07:29:34;99313.50;;;12.92;99.01
22283;BME280;11310;51.528;21.204;2023-03-23T07:32:13;99317.25;;;13.02;98.65
22283;BME280;11310;51.528;21.204;2023-03-23T07:34:42;99314.91;;;13.10;98.67
22283;BME280;11310;51.528;21.204;2023-03-23T07:37:30;99325.91;;;13.29;97.37
22283;BME280;11310;51.528;21.204;2023-03-23T07:39:59;99331.38;;;13.51;95.96
22283;BME280;11310;51.528;21.204;2023-03-23T07:42:28;99328.22;;;13.71;94.95
22283;BME280;11310;51.528;21.204;2023-03-23T07:45:00;99331.44;;;13.87;94.98
22283;BME280;11310;51.528;21.204;2023-03-23T07:47:28;99337.03;;;13.95;94.01
22283;BME280;11310;51.528;21.204;2023-03-23T07:49:56;99336.81;;;13.98;94.18
22283;BME280;11310;51.528;21.204;2023-03-23T07:52:37;99341.66;;;14.04;93.98
22283;BME280;11310;51.528;21.204;2023-03-23T07:55:07;99339.97;;;14.03;93.85
22283;BME280;11310;51.528;21.204;2023-03-23T07:57:58;99326.91;;;14.02;94.30
22283;BME280;11310;51.528;21.204;2023-03-23T08:00:29;99327.50;;;14.05;93.41
22283;BME280;11310;51.528;21.204;2023-03-23T08:03:05;99336.78;;;14.11;93.49
22283;BME280;11310;51.528;21.204;2023-03-23T08:05:45;99338.03;;;14.18;92.20
22283;BME280;11310;51.528;21.204;2023-03-23T08:08:13;99331.75;;;14.20;92.59
22283;BME280;11310;51.528;21.204;2023-03-23T08:10:41;99339.50;;;14.34;92.01
22283;BME280;11310;51.528;21.204;2023-03-23T08:13:38;99337.78;;;14.46;91.46
22283;BME280;11310;51.528;21.204;2023-03-23T08:16:40;99343.56;;;14.51;90.34
22283;BME280;11310;51.528;21.204;2023-03-23T08:19:35;99341.03;;;14.49;89.78
22283;BME280;11310;51.528;21.204;2023-03-23T08:22:32;99345.97;;;14.54;90.57
22283;BME280;11310;51.528;21.204;2023-03-23T08:25:25;99342.34;;;14.67;90.25
22283;BME280;11310;51.528;21.204;2023-03-23T08:28:19;99347.94;;;14.86;89.73
22283;BME280;11310;51.528;21.204;2023-03-23T08:31:07;99345.09;;;15.00;88.23
22283;BME280;11310;51.528;21.204;2023-03-23T08:33:57;99335.78;;;15.07;87.75
22283;BME280;11310;51.528;21.204;2023-03-23T08:36:37;99339.34;;;15.06;88.24
22283;BME280;11310;51.528;21.204;2023-03-23T08:39:24;99337.28;;;14.99;87.04
22283;BME280;11310;51.528;21.204;2023-03-23T08:42:01;99333.31;;;14.93;87.48
22283;BME280;11310;51.528;21.204;2023-03-23T08:44:46;99336.69;;;14.95;87.61
22283;BME280;11310;51.528;21.204;2023-03-23T08:47:32;99339.59;;;15.03;87.93
22283;BME280;11310;51.528;21.204;2023-03-23T08:50:15;99342.06;;;15.17;87.77
22283;BME280;11310;51.528;21.204;2023-03-23T08:53:07;99335.59;;;15.32;86.81
22283;BME280;11310;51.528;21.204;2023-03-23T08:55:54;99348.16;;;15.52;86.49
22283;BME280;11310;51.528;21.204;2023-03-23T08:58:40;99341.69;;;15.67;85.38
22283;BME280;11310;51.528;21.204;2023-03-23T09:01:15;99335.44;;;15.79;84.77
22283;BME280;11310;51.528;21.204;2023-03-23T09:03:43;99340.97;;;15.98;84.85
22283;BME280;11310;51.528;21.204;2023-03-23T09:06:36;99335.09;;;16.06;81.90
22283;BME280;11310;51.528;21.204;2023-03-23T09:09:04;99334.94;;;16.07;82.36
22283;BME280;11310;51.528;21.204;2023-03-23T09:11:33;99342.41;;;16.13;80.58
22283;BME280;11310;51.528;21.204;2023-03-23T09:14:02;99343.59;;;16.31;81.85
22283;BME280;11310;51.528;21.204;2023-03-23T09:16:30;99339.34;;;16.62;79.84
22283;BME280;11310;51.528;21.204;2023-03-23T09:18:59;99333.81;;;16.85;79.25
22283;BME280;11310;51.528;21.204;2023-03-23T09:21:28;99332.53;;;17.32;78.12
22283;BME280;11310;51.528;21.204;2023-03-23T09:23:57;99321.59;;;17.66;74.76
22283;BME280;11310;51.528;21.204;2023-03-23T09:26:28;99321.88;;;17.63;74.63
22283;BME280;11310;51.528;21.204;2023-03-23T09:28:56;99323.94;;;17.60;75.84
22283;BME280;11310;51.528;21.204;2023-03-23T09:31:24;99306.59;;;17.35;75.87
22283;BME280;11310;51.528;21.204;2023-03-23T09:33:53;99312.28;;;17.10;76.79
22283;BME280;11310;51.528;21.204;2023-03-23T09:36:23;99323.66;;;17.01;77.08
22283;BME280;11310;51.528;21.204;2023-03-23T09:38:52;99310.94;;;17.16;77.58
22283;BME280;11310;51.528;21.204;2023-03-23T09:41:38;99312.47;;;17.89;68.85
22283;BME280;11310;51.528;21.204;2023-03-23T09:44:17;99308.50;;;18.72;68.80
22283;BME280;11310;51.528;21.204;2023-03-23T09:46:54;99309.38;;;19.01;66.67
22283;BME280;11310;51.528;21.204;2023-03-23T09:49:30;99300.66;;;19.18;67.89
22283;BME280;11310;51.528;21.204;2023-03-23T09:52:03;99295.09;;;19.31;67.23
22283;BME280;11310;51.528;21.204;2023-03-23T09:54:35;99292.13;;;19.15;67.67
22283;BME280;11310;51.528;21.204;2023-03-23T09:57:12;99288.50;;;18.97;67.65
22283;BME280;11310;51.528;21.204;2023-03-23T09:59:49;99291.75;;;18.81;68.22
22283;BME280;11310;51.528;21.204;2023-03-23T10:02:23;99297.88;;;18.53;68.84
22283;BME280;11310;51.528;21.204;2023-03-23T10:04:56;99295.41;;;18.31;70.10
22283;BME280;11310;51.528;21.204;2023-03-23T10:07:28;99298.63;;;18.25;70.07
22283;BME280;11310;51.528;21.204;2023-03-23T10:09:58;99298.63;;;18.25;70.49
22283;BME280;11310;51.528;21.204;2023-03-23T10:12:36;99300.16;;;18.18;68.91
22283;BME280;11310;51.528;21.204;2023-03-23T10:15:15;99305.25;;;18.01;62.65
22283;BME280;11310;51.528;21.204;2023-03-23T10:17:47;99288.72;;;17.88;70.22
22283;BME280;11310;51.528;21.204;2023-03-23T10:20:24;99291.94;;;17.82;68.70
22283;BME280;11310;51.528;21.204;2023-03-23T10:22:59;99288.16;;;17.84;68.87
22283;BME280;11310;51.528;21.204;2023-03-23T10:25:31;99281.78;;;17.96;69.74
22283;BME280;11310;51.528;21.204;2023-03-23T10:28:05;99279.31;;;18.04;69.16
22283;BME280;11310;51.528;21.204;2023-03-23T10:30:37;99269.00;;;18.20;68.12
22283;BME280;11310;51.528;21.204;2023-03-23T10:33:11;99258.41;;;18.30;68.06
22283;BME280;11310;51.528;21.204;2023-03-23T10:35:44;99255.50;;;18.42;67.54
22283;BME280;11310;51.528;21.204;2023-03-23T10:38:17;99249.66;;;18.58;67.26
22283;BME280;11310;51.528;21.204;2023-03-23T10:40:50;99238.88;;;18.78;65.70
22283;BME280;11310;51.528;21.204;2023-03-23T10:43:21;99248.47;;;19.17;65.46
22283;BME280;11310;51.528;21.204;2023-03-23T10:45:53;99256.44;;;19.36;63.45
22283;BME280;11310;51.528;21.204;2023-03-23T10:48:26;99262.25;;;19.59;62.41
22283;BME280;11310;51.528;21.204;2023-03-23T10:50:57;99255.03;;;19.78;60.72
22283;BME280;11310;51.528;21.204;2023-03-23T10:53:31;99255.13;;;19.86;56.16
22283;BME280;11310;51.528;21.204;2023-03-23T10:56:00;99250.91;;;20.20;58.30
22283;BME280;11310;51.528;21.204;2023-03-23T10:58:30;99244.47;;;20.75;58.17
22283;BME280;11310;51.528;21.204;2023-03-23T11:00:59;99240.53;;;21.23;57.30
22283;BME280;11310;51.528;21.204;2023-03-23T11:03:37;99230.63;;;21.41;53.04
22283;BME280;11310;51.528;21.204;2023-03-23T11:06:07;99215.56;;;21.57;54.36
22283;BME280;11310;51.528;21.204;2023-03-23T11:08:38;99229.09;;;21.64;52.92
22283;BME280;11310;51.528;21.204;2023-03-23T11:11:17;99216.59;;;22.06;52.72
22283;BME280;11310;51.528;21.204;2023-03-23T11:13:47;99219.94;;;22.57;51.79
22283;BME280;11310;51.528;21.204;2023-03-23T11:16:25;99212.25;;;23.26;48.72
22283;BME280;11310;51.528;21.204;2023-03-23T11:18:54;99213.63;;;23.77;49.11
22283;BME280;11310;51.528;21.204;2023-03-23T11:21:23;99213.97;;;24.12;47.27
22283;BME280;11310;51.528;21.204;2023-03-23T11:23:54;99200.91;;;24.09;46.44
22283;BME280;11310;51.528;21.204;2023-03-23T11:26:25;99199.81;;;23.88;47.96
22283;BME280;11310;51.528;21.204;2023-03-23T11:28:58;99203.25;;;23.74;46.85
22283;BME280;11310;51.528;21.204;2023-03-23T11:31:29;99204.59;;;23.62;47.32
22283;BME280;11310;51.528;21.204;2023-03-23T11:34:00;99195.00;;;23.37;49.38
22283;BME280;11310;51.528;21.204;2023-03-23T11:36:33;99196.31;;;23.41;48.78
22283;BME280;11310;51.528;21.204;2023-03-23T11:39:02;99183.09;;;23.39;49.30
22283;BME280;11310;51.528;21.204;2023-03-23T11:41:34;99205.69;;;23.45;48.47
22283;BME280;11310;51.528;21.204;2023-03-23T11:44:09;99181.28;;;23.32;45.70
22283;BME280;11310;51.528;21.204;2023-03-23T11:46:43;99181.22;;;23.48;46.95
22283;BME280;11310;51.528;21.204;2023-03-23T11:49:20;99191.44;;;23.52;46.49
22283;BME280;11310;51.528;21.204;2023-03-23T11:51:56;99190.28;;;23.47;47.42
22283;BME280;11310;51.528;21.204;2023-03-23T11:54:30;99186.66;;;23.00;46.64
22283;BME280;11310;51.528;21.204;2023-03-23T11:57:00;99177.97;;;22.66;49.25
22283;BME280;11310;51.528;21.204;2023-03-23T11:59:32;99181.59;;;22.25;47.29
22283;BME280;11310;51.528;21.204;2023-03-23T12:02:12;99173.72;;;22.07;48.13
22283;BME280;11310;51.528;21.204;2023-03-23T12:04:56;99161.38;;;22.30;41.19
22283;BME280;11310;51.528;21.204;2023-03-23T12:07:35;99160.28;;;22.49;46.44
22283;BME280;11310;51.528;21.204;2023-03-23T12:10:14;99162.09;;;22.96;44.81
22283;BME280;11310;51.528;21.204;2023-03-23T12:12:51;99148.88;;;23.19;44.90
22283;BME280;11310;51.528;21.204;2023-03-23T12:15:25;99147.66;;;23.37;45.34
22283;BME280;11310;51.528;21.204;2023-03-23T12:18:00;99135.03;;;23.84;43.29
22283;BME280;11310;51.528;21.204;2023-03-23T12:20:39;99132.88;;;24.41;38.53
22283;BME280;11310;51.528;21.204;2023-03-23T12:23:20;99131.94;;;24.71;39.34
22283;BME280;11310;51.528;21.204;2023-03-23T12:26:15;99120.09;;;25.02;39.37
22283;BME280;11310;51.528;21.204;2023-03-23T12:31:58;99116.00;;;25.21;40.47
22283;BME280;11310;51.528;21.204;2023-03-23T12:34:36;99108.28;;;24.52;41.48
22283;BME280;11310;51.528;21.204;2023-03-23T12:43:04;99139.72;;;23.52;42.37
22283;BME280;11310;51.528;21.204;2023-03-23T12:46:00;99123.47;;;22.75;39.97
22283;BME280;11310;51.528;21.204;2023-03-23T12:48:35;99145.50;;;22.13;44.51
22283;BME280;11310;51.528;21.204;2023-03-23T12:51:14;99137.31;;;21.65;43.34
22283;BME280;11310;51.528;21.204;2023-03-23T12:53:50;99129.34;;;21.31;46.34
22283;BME280;11310;51.528;21.204;2023-03-23T12:56:25;99130.72;;;21.10;45.78
22283;BME280;11310;51.528;21.204;2023-03-23T12:58:59;99138.56;;;20.85;47.13
22283;BME280;11310;51.528;21.204;2023-03-23T13:01:30;99134.88;;;20.61;47.37
22283;BME280;11310;51.528;21.204;2023-03-23T13:04:06;99113.44;;;20.45;48.36
22283;BME280;11310;51.528;21.204;2023-03-23T13:06:36;99119.47;;;20.29;49.76
22283;BME280;11310;51.528;21.204;2023-03-23T13:09:09;99116.50;;;20.15;49.98
22283;BME280;11310;51.528;21.204;2023-03-23T13:11:40;99112.53;;;20.01;49.70
22283;BME280;11310;51.528;21.204;2023-03-23T13:14:18;99094.81;;;19.92;47.93
22283;BME280;11310;51.528;21.204;2023-03-23T13:16:56;99097.59;;;19.91;47.87
22283;BME280;11310;51.528;21.204;2023-03-23T13:19:31;99107.03;;;19.85;49.44
22283;BME280;11310;51.528;21.204;2023-03-23T13:22:06;99107.50;;;19.81;50.75
22283;BME280;11310;51.528;21.204;2023-03-23T13:24:39;99103.88;;;19.72;50.01
22283;BME280;11310;51.528;21.204;2023-03-23T13:27:09;99103.97;;;19.63;51.05
22283;BME280;11310;51.528;21.204;2023-03-23T13:29:44;99103.19;;;19.53;49.76
22283;BME280;11310;51.528;21.204;2023-03-23T13:32:15;99103.78;;;19.47;51.53
22283;BME280;11310;51.528;21.204;2023-03-23T13:34:46;99100.44;;;19.45;50.98
22283;BME280;11310;51.528;21.204;2023-03-23T13:37:24;99106.88;;;19.42;49.96
22283;BME280;11310;51.528;21.204;2023-03-23T13:39:53;99112.50;;;19.39;51.96